Time;durP1;ratioP1;P1;durP2;ratioP2;P2;SDS_P1;SDS_P2;PMS_P1;PMS_P2;Temp;Humidity;BMP_temperature;BMP_pressure;BME280_temperature;BME280_humidity;BME280_pressure;Samples;Min_cycle;Max_cycle;Signal;HPM_P1;HPM_P2
2024/01/03 00:00:08;;;;;;;;;;;;;;;12.57;52.14;98188.94;4940692;28;100055;-65
2024/01/03 00:02:34;;;;;;;;;;;;;;;12.59;52.03;98184.03;4939050;28;97856;-65
2024/01/03 00:05:00;;;;;;;;;;;;;;;12.61;52.25;98184.47;4935554;28;108303;-65
2024/01/03 00:07:26;;;;;;;;;;;;;;;12.61;52.17;98179.06;4914120;28;123375;-63
2024/01/03 00:09:56;;;;;;;;;;;;;;;12.63;51.92;98176.81;4935505;28;98253;-65
2024/01/03 00:12:25;;;;;;;;;;;;;;;12.63;52.01;98172.19;4934377;28;98362;-65
2024/01/03 00:14:51;;;;;;;;;;;;;;;12.64;52.19;98167.56;4922220;28;100044;-65
2024/01/03 00:17:17;;;;;;;;;;;;;;;12.64;52.24;98154.84;4921276;28;98789;-62
2024/01/03 00:19:44;;;;;;;;;;;;;;;12.65;52.25;98164.53;4918335;28;99993;-65
2024/01/03 00:22:11;;;;;;;;;;;;;;;12.66;51.97;98162.63;4948068;28;98834;-65
2024/01/03 00:24:46;;;;;;;;;;;;;;;12.66;51.91;98160.72;4938754;28;98437;-63
2024/01/03 00:27:12;;;;;;;;;;;;;;;12.68;52.15;98163.06;4940322;28;98125;-65
2024/01/03 00:29:52;;;;;;;;;;;;;;;12.66;51.83;98155.31;4924350;28;98150;-65
2024/01/03 00:32:20;;;;;;;;;;;;;;;12.68;52.27;98158.44;4952928;28;98649;-65
2024/01/03 00:34:46;;;;;;;;;;;;;;;12.68;51.92;98161.16;4921213;28;99618;-63
2024/01/03 00:37:22;;;;;;;;;;;;;;;12.69;52.26;98151.94;4938719;28;97850;-65
2024/01/03 00:39:49;;;;;;;;;;;;;;;12.69;52.10;98154.66;4939780;28;99343;-65
2024/01/03 00:42:15;;;;;;;;;;;;;;;12.68;52.26;98147.66;4938702;28;98053;-63
2024/01/03 00:44:41;;;;;;;;;;;;;;;12.68;52.05;98160.38;4937592;28;98248;-63
2024/01/03 00:47:08;;;;;;;;;;;;;;;12.68;52.29;98163.84;4925507;28;98139;-63
2024/01/03 00:49:34;;;;;;;;;;;;;;;12.67;52.13;98162.28;4942071;28;98100;-65
2024/01/03 00:52:00;;;;;;;;;;;;;;;12.67;51.99;98162.28;4921258;28;103840;-63
2024/01/03 00:54:26;;;;;;;;;;;;;;;12.66;52.05;98163.44;4921536;28;98054;-65
2024/01/03 00:56:52;;;;;;;;;;;;;;;12.67;52.13;98154.19;4939353;28;127160;-65
2024/01/03 00:59:17;;;;;;;;;;;;;;;12.66;52.32;98160.72;4924868;28;119417;-65
2024/01/03 01:01:44;;;;;;;;;;;;;;;12.67;52.04;98161.50;4920949;28;127387;-63
2024/01/03 01:04:10;;;;;;;;;;;;;;;12.66;52.13;98168.84;4923636;28;114312;-65
2024/01/03 01:06:36;;;;;;;;;;;;;;;12.65;52.17;98167.22;4939811;28;99225;-65
2024/01/03 01:09:04;;;;;;;;;;;;;;;12.64;52.24;98165.66;4940632;28;97991;-63
2024/01/03 01:11:30;;;;;;;;;;;;;;;12.64;52.23;98172.97;4921902;28;98303;-66
2024/01/03 01:13:56;;;;;;;;;;;;;;;12.63;52.02;98171.41;4921931;28;98282;-65
2024/01/03 01:16:22;;;;;;;;;;;;;;;12.63;52.13;98176.81;4937905;28;125408;-65
2024/01/03 01:18:48;;;;;;;;;;;;;;;12.62;52.18;98175.25;4937052;28;108217;-65
2024/01/03 01:21:14;;;;;;;;;;;;;;;12.61;52.19;98174.44;4937144;28;98255;-65
2024/01/03 01:23:43;;;;;;;;;;;;;;;12.60;52.14;98180.19;4933073;28;117462;-65
2024/01/03 01:26:09;;;;;;;;;;;;;;;12.60;52.34;98191.00;4919689;28;99329;-65
2024/01/03 01:28:35;;;;;;;;;;;;;;;12.59;52.14;98189.44;4921976;28;98281;-63
2024/01/03 01:31:01;;;;;;;;;;;;;;;12.58;52.19;98180.53;4920310;28;118596;-63
2024/01/03 01:33:27;;;;;;;;;;;;;;;12.58;52.35;98194.03;4938446;28;98378;-65
2024/01/03 01:35:54;;;;;;;;;;;;;;;12.57;52.18;98189.75;4922787;28;116636;-63
2024/01/03 01:38:20;;;;;;;;;;;;;;;12.57;52.23;98191.66;4919408;28;98154;-63
2024/01/03 01:40:48;;;;;;;;;;;;;;;12.57;52.07;98188.94;4934076;28;112330;-63
2024/01/03 01:43:14;;;;;;;;;;;;;;;12.57;51.93;98192.44;4953800;28;98255;-63
2024/01/03 01:45:43;;;;;;;;;;;;;;;12.56;52.33;98193.56;4934620;28;104401;-65
2024/01/03 01:48:09;;;;;;;;;;;;;;;12.57;52.17;98194.34;4922224;28;97977;-63
2024/01/03 01:50:36;;;;;;;;;;;;;;;12.57;52.14;98194.34;4921364;28;100771;-65
2024/01/03 01:53:02;;;;;;;;;;;;;;;12.57;52.06;98195.16;4935822;28;118317;-65
2024/01/03 01:55:28;;;;;;;;;;;;;;;12.57;51.94;98197.84;4919847;28;98268;-66
2024/01/03 01:57:54;;;;;;;;;;;;;;;12.57;52.38;98200.53;4921352;28;99544;-63
2024/01/03 02:00:20;;;;;;;;;;;;;;;12.58;52.25;98209.47;4935797;28;100559;-65
2024/01/03 02:02:46;;;;;;;;;;;;;;;12.59;52.33;98211.81;4922084;28;98099;-65
2024/01/03 02:05:13;;;;;;;;;;;;;;;12.60;52.45;98216.09;4932777;28;128172;-63
2024/01/03 02:07:39;;;;;;;;;;;;;;;12.59;51.98;98209.13;4919893;28;98157;-65
2024/01/03 02:10:08;;;;;;;;;;;;;;;12.62;52.35;98202.28;4920417;28;103698;-63
2024/01/03 02:12:35;;;;;;;;;;;;;;;12.62;52.28;98207.69;4940318;28;98172;-65
2024/01/03 02:15:00;;;;;;;;;;;;;;;12.62;51.97;98205.75;4921599;28;99262;-66
2024/01/03 02:17:27;;;;;;;;;;;;;;;12.63;52.05;98220.84;4923355;28;100627;-65
2024/01/03 02:20:00;;;;;;;;;;;;;;;12.63;51.92;98212.72;4951376;28;98638;-63
2024/01/03 02:22:30;;;;;;;;;;;;;;;12.64;52.27;98213.53;4920843;28;100104;-63
2024/01/03 02:24:56;;;;;;;;;;;;;;;12.65;51.94;98209.69;4941128;28;101087;-65
2024/01/03 02:27:22;;;;;;;;;;;;;;;12.67;52.27;98210.16;4936359;28;99472;-65
2024/01/03 02:29:48;;;;;;;;;;;;;;;12.67;52.21;98202.03;4924706;28;98154;-65
2024/01/03 02:32:14;;;;;;;;;;;;;;;12.67;52.27;98200.13;4936606;28;127406;-65
2024/01/03 02:34:40;;;;;;;;;;;;;;;12.68;52.09;98199.00;4920962;28;122184;-65
2024/01/03 02:37:10;;;;;;;;;;;;;;;12.68;52.24;98204.41;4918325;28;99568;-63
2024/01/03 02:39:36;;;;;;;;;;;;;;;12.69;52.12;98207.91;4938401;28;100864;-65
2024/01/03 02:42:02;;;;;;;;;;;;;;;12.69;52.02;98206.00;4921711;28;129373;-62
2024/01/03 02:44:28;;;;;;;;;;;;;;;12.70;52.37;98212.19;4936853;28;98080;-65
2024/01/03 02:46:55;;;;;;;;;;;;;;;12.69;52.10;98206.00;4922608;28;98249;-62
2024/01/03 02:49:21;;;;;;;;;;;;;;;12.70;52.08;98206.78;4924823;28;99983;-65
2024/01/03 02:51:47;;;;;;;;;;;;;;;12.71;52.21;98208.34;4935519;28;98514;-63
2024/01/03 02:54:13;;;;;;;;;;;;;;;12.70;52.13;98202.16;4938727;28;99444;-65
2024/01/03 02:56:39;;;;;;;;;;;;;;;12.70;52.03;98223.00;4919669;28;117274;-62
2024/01/03 02:59:05;;;;;;;;;;;;;;;12.70;52.06;98215.69;4921271;28;99877;-65
2024/01/03 03:01:31;;;;;;;;;;;;;;;12.71;52.25;98216.47;4924559;28;101792;-65
2024/01/03 03:03:57;;;;;;;;;;;;;;;12.71;52.47;98221.88;4938943;28;129260;-65
2024/01/03 03:06:23;;;;;;;;;;;;;;;12.71;52.33;98222.66;4938963;28;106074;-65
2024/01/03 03:08:49;;;;;;;;;;;;;;;12.71;52.05;98227.28;4937612;28;108615;-66
2024/01/03 03:11:15;;;;;;;;;;;;;;;12.73;52.15;98222.31;4919356;28;127346;-65
2024/01/03 03:13:41;;;;;;;;;;;;;;;12.74;52.06;98223.91;4932087;28;99811;-65
2024/01/03 03:16:08;;;;;;;;;;;;;;;12.74;52.14;98224.69;4920856;28;106178;-63
2024/01/03 03:18:34;;;;;;;;;;;;;;;12.75;52.46;98230.91;4938085;28;98933;-65
2024/01/03 03:21:02;;;;;;;;;;;;;;;12.76;52.37;98229.75;4921067;28;119364;-62
2024/01/03 03:23:28;;;;;;;;;;;;;;;12.78;52.17;98222.91;4919180;28;98137;-65
2024/01/03 03:25:54;;;;;;;;;;;;;;;12.77;52.01;98223.22;4937500;28;98058;-65
2024/01/03 03:28:21;;;;;;;;;;;;;;;12.78;51.98;98231.00;4924927;28;127276;-65
2024/01/03 03:30:47;;;;;;;;;;;;;;;12.78;52.37;98233.72;4938129;28;100470;-63
2024/01/03 03:33:13;;;;;;;;;;;;;;;12.80;52.27;98224.47;4951900;28;99427;-65
2024/01/03 03:35:39;;;;;;;;;;;;;;;12.78;52.00;98225.59;4935761;28;117852;-65
2024/01/03 03:38:06;;;;;;;;;;;;;;;12.78;52.41;98231.00;4947614;28;99384;-62
2024/01/03 03:40:32;;;;;;;;;;;;;;;12.77;52.39;98232.16;4918812;28;98945;-64
2024/01/03 03:42:58;;;;;;;;;;;;;;;12.77;52.09;98226.75;4922806;28;98028;-65
2024/01/03 03:45:25;;;;;;;;;;;;;;;12.76;52.33;98225.13;4938977;28;105526;-62
2024/01/03 03:47:51;;;;;;;;;;;;;;;12.77;52.33;98231.34;4920069;28;98271;-62
2024/01/03 03:50:17;;;;;;;;;;;;;;;12.77;52.22;98231.34;4924867;28;98154;-64
2024/01/03 03:52:43;;;;;;;;;;;;;;;12.77;52.44;98234.84;4923405;28;102998;-65
2024/01/03 03:55:09;;;;;;;;;;;;;;;12.76;52.14;98232.47;4919720;28;98094;-62
2024/01/03 03:57:35;;;;;;;;;;;;;;;12.76;52.08;98232.47;4942185;28;98124;-62
2024/01/03 04:00:05;;;;;;;;;;;;;;;12.76;52.10;98227.84;4935741;28;100690;-62
2024/01/03 04:02:32;;;;;;;;;;;;;;;12.76;51.88;98233.25;4922644;28;99628;-65
2024/01/03 04:04:58;;;;;;;;;;;;;;;12.75;52.17;98233.59;4936040;28;98124;-63
2024/01/03 04:07:26;;;;;;;;;;;;;;;12.75;52.02;98231.69;4923149;28;98248;-63
2024/01/03 04:09:53;;;;;;;;;;;;;;;12.75;52.39;98228.97;4920174;28;98639;-62
2024/01/03 04:12:20;;;;;;;;;;;;;;;12.75;52.41;98239.00;4932134;28;98615;-65
2024/01/03 04:14:46;;;;;;;;;;;;;;;12.76;52.14;98240.56;4940461;28;98129;-65
2024/01/03 04:17:12;;;;;;;;;;;;;;;12.76;52.14;98238.66;4934721;28;98282;-65
2024/01/03 04:19:38;;;;;;;;;;;;;;;12.76;52.04;98241.34;4922588;28;129016;-63
2024/01/03 04:22:05;;;;;;;;;;;;;;;12.79;52.10;98242.63;4954241;28;98257;-65
2024/01/03 04:24:31;;;;;;;;;;;;;;;12.81;52.06;98250.38;4935601;28;98580;-62
2024/01/03 04:26:57;;;;;;;;;;;;;;;12.81;52.00;98244.97;4918654;28;98996;-63
2024/01/03 04:29:23;;;;;;;;;;;;;;;12.81;51.98;98251.19;4919619;28;99033;-65
2024/01/03 04:31:49;;;;;;;;;;;;;;;12.81;52.33;98251.19;4924155;28;126348;-62
2024/01/03 04:34:15;;;;;;;;;;;;;;;12.83;52.35;98256.25;4924380;28;105088;-65
2024/01/03 04:36:41;;;;;;;;;;;;;;;12.83;52.23;98257.03;4922934;28;130067;-65
2024/01/03 04:39:07;;;;;;;;;;;;;;;12.84;52.39;98258.59;4935127;28;111969;-65
2024/01/03 04:41:33;;;;;;;;;;;;;;;12.83;52.26;98267.84;4938409;28;99191;-65
2024/01/03 04:43:59;;;;;;;;;;;;;;;12.85;52.34;98262.09;4936837;28;97964;-65
2024/01/03 04:46:25;;;;;;;;;;;;;;;12.85;52.23;98262.09;4935439;28;107112;-63
2024/01/03 04:48:52;;;;;;;;;;;;;;;12.83;52.24;98262.44;4934521;28;98521;-63
2024/01/03 04:51:18;;;;;;;;;;;;;;;12.84;52.03;98260.53;4922615;28;97881;-62
2024/01/03 04:53:44;;;;;;;;;;;;;;;12.83;52.39;98270.56;4920165;28;98279;-65
2024/01/03 04:56:10;;;;;;;;;;;;;;;12.83;52.16;98267.84;4921918;28;110041;-65
2024/01/03 04:58:37;;;;;;;;;;;;;;;12.83;52.38;98264.38;4921448;28;123967;-62
2024/01/03 05:01:03;;;;;;;;;;;;;;;12.83;52.41;98275.19;4917723;28;98033;-65
2024/01/03 05:03:29;;;;;;;;;;;;;;;12.82;52.35;98271.69;4935179;28;98386;-65
2024/01/03 05:05:55;;;;;;;;;;;;;;;12.82;52.23;98277.09;4940957;28;99308;-64
2024/01/03 05:08:21;;;;;;;;;;;;;;;12.82;52.06;98279.00;4919638;28;112912;-65
2024/01/03 05:10:47;;;;;;;;;;;;;;;12.81;52.02;98278.22;4923841;28;129247;-65
2024/01/03 05:13:13;;;;;;;;;;;;;;;12.81;52.02;98280.13;4938885;28;99163;-64
2024/01/03 05:15:39;;;;;;;;;;;;;;;12.81;52.21;98283.63;4930782;28;110797;-62
2024/01/03 05:18:05;;;;;;;;;;;;;;;12.80;52.44;98282.03;4973055;28;98734;-65
2024/01/03 05:20:31;;;;;;;;;;;;;;;12.80;52.25;98283.94;4924817;28;99734;-65
2024/01/03 05:22:57;;;;;;;;;;;;;;;12.79;52.42;98285.88;4956331;28;108876;-62
2024/01/03 05:25:23;;;;;;;;;;;;;;;12.80;52.12;98292.06;4925351;28;99247;-62
2024/01/03 05:27:49;;;;;;;;;;;;;;;12.79;52.44;98296.69;4938382;28;99312;-63
2024/01/03 05:30:15;;;;;;;;;;;;;;;12.78;52.50;98295.09;4938076;28;98184;-65
2024/01/03 05:32:41;;;;;;;;;;;;;;;12.78;52.39;98298.59;4929179;28;98903;-65
2024/01/03 05:35:07;;;;;;;;;;;;;;;12.78;52.12;98300.50;4938697;28;99748;-65
2024/01/03 05:37:33;;;;;;;;;;;;;;;12.77;52.05;98305.13;4935958;28;98389;-65
2024/01/03 05:40:00;;;;;;;;;;;;;;;12.78;52.29;98317.53;4922200;28;100357;-62
2024/01/03 05:42:26;;;;;;;;;;;;;;;12.78;52.14;98311.31;4937985;28;98167;-64
2024/01/03 05:44:52;;;;;;;;;;;;;;;12.77;52.14;98307.84;4936685;28;112658;-63
2024/01/03 05:47:19;;;;;;;;;;;;;;;12.77;52.04;98309.72;4916171;28;98829;-62
2024/01/03 05:49:45;;;;;;;;;;;;;;;12.76;52.21;98308.94;4940551;28;98429;-62
2024/01/03 05:52:11;;;;;;;;;;;;;;;12.75;52.01;98301.97;4928905;28;98154;-65
2024/01/03 05:54:37;;;;;;;;;;;;;;;12.76;52.06;98305.44;4956499;28;131180;-62
2024/01/03 05:57:04;;;;;;;;;;;;;;;12.76;52.11;98313.56;4938763;28;98521;-65
2024/01/03 05:59:30;;;;;;;;;;;;;;;12.76;52.29;98317.03;4936741;28;98270;-65
2024/01/03 06:01:56;;;;;;;;;;;;;;;12.75;52.31;98312.00;4921529;28;99718;-65
2024/01/03 06:04:22;;;;;;;;;;;;;;;12.75;52.16;98320.88;4923130;28;128016;-65
2024/01/03 06:06:48;;;;;;;;;;;;;;;12.75;52.08;98312.00;4940205;28;99543;-62
2024/01/03 06:09:14;;;;;;;;;;;;;;;12.74;52.27;98322.00;4923650;28;100752;-63
2024/01/03 06:11:40;;;;;;;;;;;;;;;12.73;52.32;98316.91;4940520;28;98205;-62
2024/01/03 06:14:06;;;;;;;;;;;;;;;12.72;52.23;98318.84;4924689;28;99964;-65
2024/01/03 06:16:32;;;;;;;;;;;;;;;12.73;52.51;98333.16;4936424;28;98402;-62
2024/01/03 06:18:59;;;;;;;;;;;;;;;12.72;52.24;98329.66;4923793;28;99967;-65
2024/01/03 06:21:26;;;;;;;;;;;;;;;12.71;52.38;98325.38;4935938;28;119893;-64
2024/01/03 06:23:52;;;;;;;;;;;;;;;12.71;52.17;98332.69;4922773;28;98500;-65
2024/01/03 06:26:18;;;;;;;;;;;;;;;12.71;52.38;98327.28;4924600;28;98594;-63
2024/01/03 06:28:44;;;;;;;;;;;;;;;12.70;52.34;98331.91;4926029;28;98064;-65
2024/01/03 06:31:10;;;;;;;;;;;;;;;12.70;52.29;98345.44;4942746;28;98259;-65
2024/01/03 06:33:36;;;;;;;;;;;;;;;12.69;52.17;98348.44;4941625;28;98271;-65
2024/01/03 06:36:02;;;;;;;;;;;;;;;12.69;52.36;98343.84;4938908;28;113216;-64
2024/01/03 06:38:28;;;;;;;;;;;;;;;12.69;52.41;98351.97;4922742;28;97968;-65
2024/01/03 06:40:54;;;;;;;;;;;;;;;12.69;52.18;98361.97;4924892;28;98095;-65
2024/01/03 06:43:20;;;;;;;;;;;;;;;12.69;52.11;98364.66;4919981;28;98619;-63
2024/01/03 06:45:46;;;;;;;;;;;;;;;12.69;52.00;98367.38;4931144;28;98480;-65
2024/01/03 06:48:12;;;;;;;;;;;;;;;12.69;52.29;98370.06;4922375;28;126974;-63
2024/01/03 06:50:38;;;;;;;;;;;;;;;12.68;52.32;98380.09;4939313;28;98032;-64
2024/01/03 06:53:04;;;;;;;;;;;;;;;12.69;52.41;98373.59;4935286;28;98414;-63
2024/01/03 06:55:30;;;;;;;;;;;;;;;12.68;52.16;98390.91;4918735;28;98191;-63
2024/01/03 06:57:56;;;;;;;;;;;;;;;12.69;52.14;98399.81;4926275;28;99710;-65
2024/01/03 07:00:23;;;;;;;;;;;;;;;12.68;52.46;98385.50;4921216;28;98263;-64
2024/01/03 07:02:49;;;;;;;;;;;;;;;12.68;52.37;98392.81;4920706;28;98045;-65
2024/01/03 07:05:15;;;;;;;;;;;;;;;12.70;52.34;98390.59;4940374;28;112061;-63
2024/01/03 07:07:41;;;;;;;;;;;;;;;12.70;52.36;98390.59;4938400;28;97922;-65
2024/01/03 07:10:07;;;;;;;;;;;;;;;12.70;52.28;98391.38;4937063;28;98009;-65
2024/01/03 07:12:33;;;;;;;;;;;;;;;12.71;52.35;98398.34;4922920;28;116455;-62
2024/01/03 07:15:00;;;;;;;;;;;;;;;12.70;52.22;98401.41;4925612;28;98170;-63
2024/01/03 07:17:26;;;;;;;;;;;;;;;12.72;52.33;98391.03;4924708;28;99228;-65
2024/01/03 07:19:52;;;;;;;;;;;;;;;12.73;52.35;98398.03;4923857;28;105459;-64
2024/01/03 07:22:18;;;;;;;;;;;;;;;12.74;52.09;98402.31;4934737;28;98501;-65
2024/01/03 07:24:44;;;;;;;;;;;;;;;12.74;51.99;98400.41;4932294;28;127222;-65
2024/01/03 07:27:10;;;;;;;;;;;;;;;12.77;52.14;98405.16;4918661;28;97996;-63
2024/01/03 07:29:36;;;;;;;;;;;;;;;12.80;51.97;98408.31;4918128;28;99094;-64
2024/01/03 07:32:02;;;;;;;;;;;;;;;12.83;52.00;98413.06;4916969;28;99908;-65
2024/01/03 07:34:28;;;;;;;;;;;;;;;12.83;52.14;98408.44;4934865;28;99008;-63
2024/01/03 07:36:54;;;;;;;;;;;;;;;12.87;51.91;98419.38;4918290;28;98778;-65
2024/01/03 07:39:20;;;;;;;;;;;;;;;12.92;52.10;98416.47;4914659;28;98011;-65
2024/01/03 07:41:46;;;;;;;;;;;;;;;12.97;51.82;98419.00;4936157;28;99103;-65
2024/01/03 07:44:12;;;;;;;;;;;;;;;13.03;51.91;98412.22;4933537;28;98412;-63
2024/01/03 07:46:39;;;;;;;;;;;;;;;13.11;51.95;98414.06;4916273;28;127404;-62
2024/01/03 07:49:05;;;;;;;;;;;;;;;13.19;52.07;98409.69;4934594;28;98202;-63
2024/01/03 07:51:33;;;;;;;;;;;;;;;13.25;51.74;98408.41;4919900;28;109317;-65
2024/01/03 07:54:00;;;;;;;;;;;;;;;13.47;51.69;98410.69;4918005;28;99942;-63
2024/01/03 07:56:26;;;;;;;;;;;;;;;13.64;51.33;98403.53;4916849;28;102444;-65
2024/01/03 07:58:52;;;;;;;;;;;;;;;13.69;51.59;98408.69;4929105;28;98352;-63
2024/01/03 08:01:20;;;;;;;;;;;;;;;13.82;51.38;98417.63;4930226;28;99167;-63
2024/01/03 08:03:45;;;;;;;;;;;;;;;13.93;51.10;98416.84;4936489;28;100174;-65
2024/01/03 08:06:20;;;;;;;;;;;;;;;13.99;51.24;98422.84;4921672;28;127034;-63
2024/01/03 08:08:46;;;;;;;;;;;;;;;13.87;51.64;98428.22;4951253;28;101574;-62
2024/01/03 08:11:12;;;;;;;;;;;;;;;13.83;51.85;98424.59;4915106;28;102037;-62
2024/01/03 08:13:38;;;;;;;;;;;;;;;14.01;51.62;98425.97;4950784;28;98338;-62
2024/01/03 08:16:06;;;;;;;;;;;;;;;14.46;51.12;98419.59;4913274;28;98187;-67
2024/01/03 08:18:33;;;;;;;;;;;;;;;15.01;50.45;98420.03;4919416;28;98245;-62
2024/01/03 08:20:58;;;;;;;;;;;;;;;14.95;50.91;98430.34;4945794;28;98620;-63
2024/01/03 08:23:26;;;;;;;;;;;;;;;14.78;51.09;98434.16;4920335;28;119272;-65
2024/01/03 08:25:52;;;;;;;;;;;;;;;15.07;51.00;98433.00;4931266;28;99522;-63
2024/01/03 08:28:18;;;;;;;;;;;;;;;14.88;51.28;98438.28;4934730;28;98063;-65
2024/01/03 08:30:44;;;;;;;;;;;;;;;15.78;50.09;98434.13;4929927;28;129752;-62
2024/01/03 08:33:10;;;;;;;;;;;;;;;16.52;49.49;98420.69;4914688;28;103340;-65
2024/01/03 08:35:37;;;;;;;;;;;;;;;17.15;49.29;98422.38;4930693;28;127960;-65
2024/01/03 08:38:03;;;;;;;;;;;;;;;17.70;49.00;98419.47;4930652;27;104454;-63
2024/01/03 08:40:29;;;;;;;;;;;;;;;18.27;48.85;98420.38;4916172;27;98156;-63
2024/01/03 08:42:55;;;;;;;;;;;;;;;18.02;49.57;98431.69;4923480;28;99932;-63
2024/01/03 08:45:22;;;;;;;;;;;;;;;17.94;49.98;98435.47;4921442;28;98503;-63
2024/01/03 08:47:48;;;;;;;;;;;;;;;18.22;49.51;98429.66;4918844;28;98107;-65
2024/01/03 08:50:14;;;;;;;;;;;;;;;18.17;49.90;98434.66;4923426;28;99552;-65
2024/01/03 08:52:41;;;;;;;;;;;;;;;18.82;49.12;98431.69;4934828;28;99522;-65
2024/01/03 08:55:07;;;;;;;;;;;;;;;18.40;49.91;98429.94;4938029;28;99057;-63
2024/01/03 08:57:33;;;;;;;;;;;;;;;18.01;50.51;98440.25;4919267;28;98579;-65
2024/01/03 08:59:59;;;;;;;;;;;;;;;17.88;50.50;98434.19;4937591;28;98712;-65
2024/01/03 09:02:25;;;;;;;;;;;;;;;17.75;50.69;98435.53;4919330;28;99637;-63
2024/01/03 09:04:53;;;;;;;;;;;;;;;17.59;50.92;98438.34;4920984;28;99355;-63
2024/01/03 09:07:19;;;;;;;;;;;;;;;17.39;51.02;98432.94;4920060;28;98827;-65
2024/01/03 09:09:45;;;;;;;;;;;;;;;17.14;51.25;98435.22;4922402;28;129416;-63
2024/01/03 09:12:11;;;;;;;;;;;;;;;16.85;51.34;98442.00;4940216;28;100157;-63
2024/01/03 09:14:37;;;;;;;;;;;;;;;16.72;51.47;98448.69;4944522;28;126820;-65
2024/01/03 09:17:03;;;;;;;;;;;;;;;16.62;51.36;98438.38;4940945;27;102340;-63
2024/01/03 09:19:30;;;;;;;;;;;;;;;16.56;51.43;98445.25;4939540;28;98106;-65
2024/01/03 09:21:59;;;;;;;;;;;;;;;16.49;51.27;98448.59;4949498;27;98235;-62
2024/01/03 09:24:27;;;;;;;;;;;;;;;16.54;51.29;98450.22;4936575;27;98645;-63
2024/01/03 09:26:53;;;;;;;;;;;;;;;16.58;51.18;98442.94;4942892;27;98281;-63
2024/01/03 09:29:19;;;;;;;;;;;;;;;16.42;51.36;98446.47;4936530;28;99779;-65
2024/01/03 09:31:45;;;;;;;;;;;;;;;16.35;51.52;98451.78;4939376;27;128410;-63
2024/01/03 09:34:11;;;;;;;;;;;;;;;16.41;51.37;98444.91;4940450;27;98196;-63
2024/01/03 09:36:37;;;;;;;;;;;;;;;16.34;51.50;98443.97;4941178;27;98392;-65
2024/01/03 09:39:03;;;;;;;;;;;;;;;16.22;51.49;98446.78;4938707;27;98353;-63
2024/01/03 09:41:30;;;;;;;;;;;;;;;16.11;51.62;98454.69;4955178;28;98232;-63
2024/01/03 09:43:56;;;;;;;;;;;;;;;16.00;51.71;98454.44;4937598;27;98618;-63
2024/01/03 09:46:23;;;;;;;;;;;;;;;16.00;51.70;98446.31;4938290;28;102844;-63
2024/01/03 09:48:49;;;;;;;;;;;;;;;15.96;51.64;98459.00;4938700;27;98719;-63
2024/01/03 09:51:16;;;;;;;;;;;;;;;15.97;51.62;98451.66;4933393;27;98119;-63
2024/01/03 09:53:42;;;;;;;;;;;;;;;15.95;51.60;98452.78;4938119;27;99121;-65
2024/01/03 09:56:08;;;;;;;;;;;;;;;16.02;51.49;98452.16;4942228;27;98243;-65
2024/01/03 09:58:34;;;;;;;;;;;;;;;16.08;51.45;98450.75;4950855;27;98720;-63
2024/01/03 10:01:01;;;;;;;;;;;;;;;16.09;51.46;98449.63;4933948;27;98334;-63
2024/01/03 10:03:27;;;;;;;;;;;;;;;16.09;51.64;98444.19;4939294;28;100375;-65
2024/01/03 10:06:15;;;;;;;;;;;;;;;16.34;51.11;98435.81;4937772;27;118873;-63
2024/01/03 10:08:41;;;;;;;;;;;;;;;16.63;50.72;98448.91;4966968;27;99556;-65
2024/01/03 10:11:20;;;;;;;;;;;;;;;16.69;50.95;98438.53;4952611;27;99522;-65
2024/01/03 10:13:50;;;;;;;;;;;;;;;16.54;51.28;98442.06;4940201;27;99324;-63
2024/01/03 10:16:25;;;;;;;;;;;;;;;16.41;51.44;98450.34;4953941;27;98493;-63
2024/01/03 10:19:10;;;;;;;;;;;;;;;16.34;51.50;98452.91;4959285;27;98259;-65
2024/01/03 10:21:46;;;;;;;;;;;;;;;16.27;51.51;98441.06;4969870;27;98420;-64
2024/01/03 10:24:12;;;;;;;;;;;;;;;16.23;51.45;98445.66;4955340;27;98521;-63
2024/01/03 10:26:39;;;;;;;;;;;;;;;16.17;51.42;98445.13;4951297;27;98081;-63
2024/01/03 10:29:12;;;;;;;;;;;;;;;16.14;51.63;98429.53;4938982;27;98337;-63
2024/01/03 10:31:38;;;;;;;;;;;;;;;16.08;51.63;98448.03;4955122;27;98933;-64
2024/01/03 10:34:08;;;;;;;;;;;;;;;16.09;51.66;98443.41;4934405;27;98196;-63
2024/01/03 10:36:37;;;;;;;;;;;;;;;16.12;51.48;98445.41;4954391;27;98214;-63
2024/01/03 10:39:04;;;;;;;;;;;;;;;16.12;51.54;98437.25;4937183;27;103575;-66
2024/01/03 10:41:33;;;;;;;;;;;;;;;16.09;51.41;98427.09;4971442;27;98182;-63
2024/01/03 10:44:02;;;;;;;;;;;;;;;16.06;51.56;98433.22;4939648;27;98024;-63
2024/01/03 10:46:28;;;;;;;;;;;;;;;16.08;51.41;98430.97;4941112;27;98129;-64
2024/01/03 10:48:54;;;;;;;;;;;;;;;16.15;51.36;98431.91;4939839;27;98146;-63
2024/01/03 10:51:23;;;;;;;;;;;;;;;16.10;51.62;98432.16;4957226;27;98679;-64
2024/01/03 10:53:53;;;;;;;;;;;;;;;16.01;51.69;98431.56;4936804;28;98308;-63
2024/01/03 10:56:20;;;;;;;;;;;;;;;15.97;51.46;98421.75;4939383;27;98465;-63
2024/01/03 10:58:46;;;;;;;;;;;;;;;15.89;51.72;98420.81;4953172;28;98289;-63
2024/01/03 11:01:21;;;;;;;;;;;;;;;15.85;51.81;98428.06;4949370;27;99628;-65
2024/01/03 11:04:05;;;;;;;;;;;;;;;15.73;51.92;98425.44;4939431;28;98334;-63
2024/01/03 11:06:44;;;;;;;;;;;;;;;15.62;52.08;98420.50;4957206;27;97989;-62
2024/01/03 11:09:10;;;;;;;;;;;;;;;15.54;52.13;98416.03;4936278;27;115626;-63
2024/01/03 11:11:37;;;;;;;;;;;;;;;15.52;51.91;98418.28;4952574;27;99646;-63
2024/01/03 11:14:21;;;;;;;;;;;;;;;15.53;51.65;98414.47;4947479;27;98292;-64
2024/01/03 11:16:48;;;;;;;;;;;;;;;15.56;51.76;98402.91;4940235;28;98324;-64
2024/01/03 11:19:14;;;;;;;;;;;;;;;15.54;51.93;98412.53;4953669;27;113588;-63
2024/01/03 11:21:41;;;;;;;;;;;;;;;15.51;51.81;98408.56;4955603;28;99015;-63
2024/01/03 11:24:19;;;;;;;;;;;;;;;15.45;52.00;98410.78;4935673;27;98889;-64
2024/01/03 11:26:55;;;;;;;;;;;;;;;15.41;51.98;98401.75;4969679;27;98256;-63
2024/01/03 11:29:44;;;;;;;;;;;;;;;15.37;51.81;98405.50;4968198;27;99385;-62
2024/01/03 11:32:32;;;;;;;;;;;;;;;15.34;51.98;98401.56;4969398;27;98190;-64
2024/01/03 11:34:58;;;;;;;;;;;;;;;15.38;51.96;98398.94;4938795;27;98482;-64
2024/01/03 11:37:28;;;;;;;;;;;;;;;15.40;51.47;98399.38;4949461;27;99867;-65
2024/01/03 11:39:55;;;;;;;;;;;;;;;15.40;51.88;98397.44;4982118;27;98240;-65
2024/01/03 11:42:28;;;;;;;;;;;;;;;15.37;51.88;98397.38;4955793;27;98798;-65
2024/01/03 11:45:09;;;;;;;;;;;;;;;15.33;51.91;98401.91;4951260;27;98359;-64
2024/01/03 11:47:36;;;;;;;;;;;;;;;15.34;52.00;98400.78;4936431;27;98435;-63
2024/01/03 11:50:04;;;;;;;;;;;;;;;15.32;51.77;98398.38;4952996;27;98116;-63
2024/01/03 11:52:34;;;;;;;;;;;;;;;15.38;51.72;98401.66;4934601;28;98376;-62
2024/01/03 11:55:13;;;;;;;;;;;;;;;15.55;51.56;98406.75;4938311;27;98683;-64
2024/01/03 11:57:43;;;;;;;;;;;;;;;15.85;51.01;98390.03;4938081;27;98314;-62
2024/01/03 12:00:13;;;;;;;;;;;;;;;15.92;51.26;98379.34;4946817;27;98306;-65
2024/01/03 12:02:49;;;;;;;;;;;;;;;15.98;51.04;98379.84;4953067;27;99467;-64
2024/01/03 12:05:15;;;;;;;;;;;;;;;15.90;51.41;98376.19;4935537;27;98432;-65
2024/01/03 12:07:41;;;;;;;;;;;;;;;15.89;51.45;98369.19;4955607;27;100120;-63
2024/01/03 12:10:09;;;;;;;;;;;;;;;15.89;51.40;98374.63;4948867;27;98337;-62
2024/01/03 12:12:35;;;;;;;;;;;;;;;15.88;51.52;98373.84;4918666;28;99353;-63
2024/01/03 12:15:02;;;;;;;;;;;;;;;15.84;51.44;98372.97;4918171;28;98063;-63
2024/01/03 12:17:30;;;;;;;;;;;;;;;15.82;51.61;98369.78;4932169;28;98175;-62
2024/01/03 12:20:08;;;;;;;;;;;;;;;15.84;51.56;98380.31;4935997;28;99605;-63
2024/01/03 12:22:35;;;;;;;;;;;;;;;15.80;51.53;98369.38;4951927;28;98298;-62
2024/01/03 12:25:01;;;;;;;;;;;;;;;15.74;51.58;98370.00;4922536;28;98693;-63
2024/01/03 12:27:27;;;;;;;;;;;;;;;15.75;51.70;98368.84;4939594;28;98246;-64
2024/01/03 12:30:17;;;;;;;;;;;;;;;15.75;51.65;98371.56;4933147;28;98226;-64
2024/01/03 12:32:44;;;;;;;;;;;;;;;15.84;51.50;98364.81;4920807;28;98025;-65
2024/01/03 12:35:12;;;;;;;;;;;;;;;15.85;51.46;98358.22;4922163;28;98174;-64
2024/01/03 12:37:43;;;;;;;;;;;;;;;15.92;51.38;98361.13;4925750;28;98219;-64
2024/01/03 12:40:14;;;;;;;;;;;;;;;15.99;51.31;98359.69;4950945;28;98286;-62
2024/01/03 12:42:44;;;;;;;;;;;;;;;16.00;51.40;98353.91;4920043;28;98255;-63